West Point, VA (23181)

5:56 AM EST on February 10, 2016 (GMT -0500)
APRSWXNET | | Change Station
CLOSE
Current Station
Personal Weather Station
Location: West Point, VA
Elevation: 19 ft
Nearby Weather Stations
Active Advisory: Special Statement

Elev 19 ft 37.57 °N, 76.80 °W | Updated 38 minutes ago

Overcast
Overcast
28 °F
Feels Like 28 °F
N
0
Wind Variable Wind from West
Gusts 6.0 mph

Today
High -- | Low -- °F
--% Chance of Precip.
Yesterday
High -- | Low -- °F
Precip. -- in
Pressure 29.79 in
Visibility 5.0 miles
Clouds Scattered Clouds 800 ft
Overcast 1400 ft
Windchill 28 °F
Dew Point 26 °F
Humidity 93%
Rainfall in
Snow Depth Not available.
7:02 AM 5:40 PM
Waxing Crescent, 5% visible
METAR KFYJ 101035Z AUTO 26009KT 5SM SCT008 OVC014 M01/M03 A2979 RMK AO2 T10131026
Pressure 29.79 in
Visibility 5.0 miles
Clouds Scattered Clouds 800 ft
Overcast 1400 ft
Windchill 28 °F
Dew Point 26 °F
Humidity 93%
Rainfall in
Snow Depth Not available.
7:02 AM 5:40 PM
Waxing Crescent, 5% visible
METAR KFYJ 101035Z AUTO 26009KT 5SM SCT008 OVC014 M01/M03 A2979 RMK AO2 T10131026

10-Day Weather Forecast

Almanac

Astronomy

Feb. 10, 2016 Rise Set
Actual Time
Civil Twilight
Nautical Twilight
Astronomical Twilight
Moon
Length of Visible Light
Length of Day
Tomorrow will be .
, % of the Moon is Illuminated

Today's Extremes

State Highs State Lows

Community

WunderPhotos

Upload Photos

1,891,830 photos uploaded!

WunderBlog® & News

Nearby

Air Quality

  Air Quality AQ Index Pollutant
Not available.

Snow Depth

Station Depth Elevation

Earthquake Activity

City Distance Mag. Time & Date
Minimum magnitude displayed is 2.5.

Coastal Water Temperatures

Place Temperature

Stations

Nearby Weather Stations

Station Location Temp. Windchill Dew Point Humidity Wind Precip. Elev Updated Type
                   

Watches & Warnings

Special Statement
Issued: 4:13 AM EST Feb. 10, 2016 – National Weather Service

... Snow showers early this morning across portions of central and
eastern Virginia...

Scattered to numerous snow showers will persist through 6 am
across portions of central and eastern Virginia... mainly east of
Interstate 95and to the north of the James River. Visibilities
will briefly be reduced to around one half mile in the heaviest
snow showers. A light dusting of snow will be possible... mainly on
bridges and overpasses. The snow showers will move off to the east
of the region and diminish by 6 am.


Brown